Time;durP1;ratioP1;P1;durP2;ratioP2;P2;SDS_P1;SDS_P2;PMS_P1;PMS_P2;Temp;Humidity;BMP_temperature;BMP_pressure;BME280_temperature;BME280_humidity;BME280_pressure;Samples;Min_cycle;Max_cycle;Signal;HPM_P1;HPM_P2
2023/10/09 00:01:13;;;;;;;30.80;12.45;;;;;;;-144.05;88.58;56965.66;5037044;28;20061;-88
2023/10/09 00:03:42;;;;;;;28.75;12.18;;;15.00;99.90;;;-144.05;88.68;56946.53;5052286;28;20132;-87
2023/10/09 00:06:12;;;;;;;27.98;12.77;;;;;;;-144.05;88.61;56933.78;5036172;28;20499;-86
2023/10/09 00:08:44;;;;;;;27.55;13.18;;;;;;;-144.05;88.41;56938.03;5036847;28;20033;-88
2023/10/09 00:11:15;;;;;;;28.73;13.30;;;;;;;-144.05;87.84;56942.28;5035029;28;20450;-86
2023/10/09 00:13:51;;;;;;;29.60;12.68;;;15.10;99.90;;;-144.05;87.63;56931.66;5035067;28;20088;-85
2023/10/09 00:16:32;;;;;;;30.33;12.23;;;15.20;99.90;;;-144.05;87.37;56955.03;5035015;28;20037;-88
2023/10/09 00:19:30;;;;;;;29.65;12.50;;;;;;;-144.05;86.65;56938.03;5031709;28;20770;-87
2023/10/09 00:21:58;;;;;;;27.95;12.23;;;;;;;-144.05;86.21;56910.44;5035951;28;20021;-87
2023/10/09 00:24:24;;;;;;;26.05;11.82;;;;;;;-144.05;86.15;56957.16;5034711;28;20081;-88
2023/10/09 00:27:19;;;;;;;21.10;11.38;;;15.30;99.90;;;-144.05;86.13;56925.28;5035323;28;20125;-87
2023/10/09 00:29:45;;;;;;;32.22;11.88;;;;;;;-144.05;86.17;56959.28;5035158;28;20407;-88
2023/10/09 00:32:26;;;;;;;25.75;11.77;;;14.00;99.90;;;-144.05;86.28;56942.28;5034929;28;20033;-86
2023/10/09 00:34:58;;;;;;;24.00;11.10;;;;;;;-144.05;86.26;56940.16;5031552;28;20483;-87
2023/10/09 00:37:26;;;;;;;27.75;12.77;;;;;;;-144.05;86.21;56925.28;5030505;28;20151;-88
2023/10/09 00:39:56;;;;;;;24.48;11.52;;;15.70;99.90;;;-144.05;86.03;56944.41;5034587;28;20033;-88
2023/10/09 00:42:29;;;;;;;27.55;12.52;;;;;;;-144.05;85.74;56942.28;5036650;28;20028;-88
2023/10/09 00:44:56;;;;;;;25.38;10.40;;;15.00;99.90;;;-144.05;85.24;56948.66;5035840;28;20037;-89
2023/10/09 00:47:34;;;;;;;25.35;11.65;;;;;;;-144.05;85.11;56948.66;5035240;28;20051;-88
2023/10/09 00:50:20;;;;;;;22.75;11.45;;;16.10;99.90;;;-144.05;84.61;56948.66;5036509;28;20021;-87
2023/10/09 00:53:02;;;;;;;22.75;11.13;;;17.30;99.90;;;-144.05;83.84;56942.28;5034468;28;20095;-89
2023/10/09 00:58:13;;;;;;;24.25;10.93;;;;;;;-144.05;83.38;56946.53;5020212;28;20033;-88
2023/10/09 01:05:52;;;;;;;23.25;10.27;;;16.90;99.90;;;-144.05;81.87;56963.53;5054905;28;20037;-88
2023/10/09 01:11:09;;;;;;;20.65;9.85;;;;;;;-144.05;82.75;56976.28;5035379;28;20409;-87
2023/10/09 01:14:03;;;;;;;24.92;9.68;;;;;;;-144.05;82.07;56940.16;5035736;28;20498;-87
2023/10/09 01:16:28;;;;;;;20.70;9.63;;;;;;;-144.05;82.34;56957.16;5031449;28;20037;-88
2023/10/09 01:18:59;;;;;;;22.70;9.88;;;16.20;99.90;;;-144.05;81.31;56950.78;5034559;28;20025;-87
2023/10/09 01:21:31;;;;;;;19.52;9.85;;;;;;;-144.05;81.29;56959.28;5034487;28;20101;-88
2023/10/09 01:24:03;;;;;;;23.63;9.85;;;;;;;-144.05;81.42;56961.41;5049572;28;20033;-87
2023/10/09 01:26:39;;;;;;;20.05;9.55;;;;;;;-144.05;81.14;56974.16;5027803;28;20068;-87
2023/10/09 01:29:14;;;;;;;21.63;9.68;;;;;;;-144.05;80.92;56993.25;5027694;28;20060;-88
2023/10/09 01:31:50;;;;;;;20.20;9.80;;;;;;;-144.05;81.12;56944.41;5033824;28;20033;-86
2023/10/09 01:34:19;;;;;;;22.95;10.48;;;;;;;-144.05;80.57;56942.28;5025184;28;20041;-87
2023/10/09 01:36:48;;;;;;;21.38;9.85;;;;;;;-144.05;81.05;56961.41;5033205;28;20028;-87
2023/10/09 01:39:23;;;;;;;21.05;9.95;;;;;;;-144.05;80.81;56957.16;5033051;28;20029;-87
2023/10/09 01:41:57;;;;;;;20.17;10.38;;;;;;;-144.05;81.86;56950.78;5034357;28;20104;-87
2023/10/09 01:44:34;;;;;;;24.50;10.00;;;;;;;-144.05;81.64;56972.03;5045630;28;20032;-88
2023/10/09 01:47:19;;;;;;;18.25;10.20;;;;;;;-144.05;81.66;56950.78;5033914;28;20097;-86
2023/10/09 01:49:49;;;;;;;20.10;9.27;;;;;;;-144.05;81.96;56961.41;5034088;28;20036;-87
2023/10/09 01:52:16;;;;;;;16.58;8.07;;;15.90;99.90;;;-144.05;81.81;56982.66;5030783;28;20080;-88
2023/10/09 01:54:50;;;;;;;17.35;9.73;;;15.90;99.90;;;-144.05;82.55;56929.53;5031083;28;20406;-87
2023/10/09 01:57:23;;;;;;;17.23;9.02;;;16.00;99.90;;;-144.05;81.92;56933.78;5029887;28;20038;-86
2023/10/09 01:59:54;;;;;;;22.13;9.45;;;;;;;-144.05;81.88;56969.91;5031269;28;20029;-85
2023/10/09 02:02:31;;;;;;;22.88;9.65;;;;;;;-144.05;82.52;56944.41;5027098;28;20033;-87
2023/10/09 02:05:10;;;;;;;16.75;9.13;;;16.20;99.90;;;-144.05;81.97;56944.41;5033327;28;20033;-87
2023/10/09 02:07:40;;;;;;;22.05;9.57;;;;;;;-144.05;82.12;56972.03;5040308;28;20091;-87
2023/10/09 02:12:57;;;;;;;19.58;9.20;;;;;;;-144.05;81.26;56976.28;5024052;28;20104;-87
2023/10/09 02:18:25;;;;;;;18.27;10.15;;;;;;;-144.05;81.17;56974.16;5032588;28;20037;-88
2023/10/09 02:26:25;;;;;;;15.13;8.88;;;15.50;99.90;;;-144.05;81.18;56950.78;5034108;28;20022;-88
2023/10/09 02:29:15;;;;;;;19.35;9.20;;;;;;;-144.05;80.66;56984.78;5033751;28;20021;-88
2023/10/09 02:31:46;;;;;;;16.55;8.75;;;;;;;-144.05;80.81;56972.03;5025755;28;20056;-87
2023/10/09 02:34:15;;;;;;;23.42;9.20;;;;;;;-144.05;80.64;56961.41;5033419;28;20517;-87
2023/10/09 02:36:42;;;;;;;17.20;8.55;;;;;;;-144.05;80.72;56946.53;5033886;28;20080;-88
2023/10/09 02:39:28;;;;;;;17.02;8.45;;;;;;;-144.05;80.20;56950.78;5025847;28;20056;-87
2023/10/09 02:42:08;;;;;;;17.02;8.10;;;;;;;-144.05;79.76;56967.78;5034156;28;20480;-88
2023/10/09 02:44:40;;;;;;;17.17;8.23;;;;;;;-144.05;79.13;56940.16;5029378;28;20033;-88
2023/10/09 02:47:17;;;;;;;16.15;8.50;;;;;;;-144.05;78.97;56976.28;5025813;28;20021;-87
2023/10/09 02:49:45;;;;;;;18.48;9.00;;;;;;;-144.05;78.84;56967.78;5038085;28;20022;-86
2023/10/09 02:52:13;;;;;;;14.55;7.68;;;;;;;-144.05;78.62;56963.53;5033826;28;20028;-88
2023/10/09 02:54:41;;;;;;;19.83;8.32;;;;;;;-144.05;78.24;56946.53;5032157;28;20491;-87
2023/10/09 02:57:08;;;;;;;20.55;8.68;;;;;;;-144.05;78.24;56938.03;5048613;28;20398;-87
2023/10/09 02:59:38;;;;;;;15.63;8.60;;;16.20;99.90;;;-144.05;78.26;56948.66;5036152;28;20129;-87
2023/10/09 03:02:04;;;;;;;16.67;7.97;;;;;;;-144.05;77.91;56955.03;5029709;28;20029;-88
2023/10/09 03:04:30;;;;;;;17.25;8.85;;;;;;;-144.05;77.84;56952.91;5036677;28;20032;-86
2023/10/09 03:06:58;;;;;;;22.67;8.43;;;15.50;99.90;;;-144.05;77.93;56948.66;5037017;28;20035;-87
2023/10/09 03:09:28;;;;;;;15.23;8.00;;;16.10;99.90;;;-144.05;77.99;56980.53;5034294;28;20515;-87
2023/10/09 03:12:05;;;;;;;20.45;8.93;;;16.00;99.90;;;-144.05;77.55;56961.41;5038578;28;20025;-87
2023/10/09 03:14:37;;;;;;;21.08;8.15;;;15.70;99.90;;;-144.05;77.09;56986.91;5033600;28;20026;-87
2023/10/09 03:17:05;;;;;;;15.73;8.45;;;15.70;99.90;;;-144.05;77.46;56938.03;5048470;28;20029;-87
2023/10/09 03:19:40;;;;;;;20.65;8.10;;;16.20;99.90;;;-144.05;76.98;56944.41;5033958;28;20029;-87
2023/10/09 03:22:10;;;;;;;13.67;7.73;;;17.50;99.90;;;-144.05;77.45;56967.78;5042237;28;20026;-85
2023/10/09 03:24:37;;;;;;;14.38;7.65;;;;;;;-144.05;77.07;56969.91;5034511;28;20032;-87
2023/10/09 03:27:04;;;;;;;14.02;7.72;;;;;;;-144.05;77.23;56963.53;5036206;28;20041;-86
2023/10/09 03:29:31;;;;;;;15.43;8.07;;;;;;;-144.05;77.54;56946.53;5037636;28;20426;-87
2023/10/09 03:31:57;;;;;;;16.23;7.82;;;;;;;-144.05;77.26;56976.28;5035863;28;20555;-86
2023/10/09 03:34:24;;;;;;;13.43;7.78;;;;;;;-144.05;77.08;56944.41;5037507;28;20036;-86
2023/10/09 03:36:59;;;;;;;20.10;8.80;;;;;;;-144.05;77.08;56967.78;5037845;28;20029;-89
2023/10/09 03:39:47;;;;;;;17.20;8.23;;;;;;;-144.05;77.02;56942.28;5037946;28;20116;-89
2023/10/09 03:42:22;;;;;;;17.48;7.97;;;16.20;99.90;;;-144.05;77.57;56969.91;5035868;28;20606;-87
2023/10/09 03:44:57;;;;;;;17.25;8.07;;;;;;;-144.05;77.21;56972.03;5048425;28;20045;-87
2023/10/09 03:47:24;;;;;;;18.65;8.95;;;;;;;-144.05;76.84;56929.53;5037004;28;20080;-87
2023/10/09 03:49:53;;;;;;;18.40;7.65;;;;;;;-144.05;76.46;56965.66;5037451;28;20475;-89
2023/10/09 03:52:20;;;;;;;13.32;7.88;;;;;;;-144.05;76.73;56901.94;5038594;28;20111;-90
2023/10/09 03:54:49;;;;;;;16.33;8.07;;;16.30;99.90;;;-144.05;76.84;56948.66;5035754;28;20033;-87
2023/10/09 03:57:19;;;;;;;14.40;8.27;;;;;;;-144.05;76.38;56955.03;5022977;28;20033;-87
2023/10/09 03:59:49;;;;;;;15.95;7.78;;;;;;;-144.05;76.26;56950.78;5035367;28;20025;-87
2023/10/09 04:02:16;;;;;;;13.23;7.80;;;;;;;-144.05;75.87;56955.03;5037508;28;20087;-87
2023/10/09 04:04:46;;;;;;;15.93;8.18;;;;;;;-144.05;76.06;56974.16;5035526;28;20079;-87
2023/10/09 04:07:16;;;;;;;15.93;8.38;;;;;;;-144.05;77.08;56946.53;5035940;28;20079;-89
2023/10/09 04:09:47;;;;;;;14.25;7.85;;;;;;;-144.05;77.92;56980.53;5034667;28;20037;-85
2023/10/09 04:12:19;;;;;;;16.67;8.98;;;;;;;-144.05;77.71;56978.41;5041768;28;20076;-85
2023/10/09 04:14:57;;;;;;;19.30;9.05;;;;;;;-144.05;76.90;56980.53;5036281;28;20029;-87
2023/10/09 04:17:33;;;;;;;15.02;8.07;;;;;;;-144.05;77.48;56955.03;5016995;28;20415;-88
2023/10/09 04:23:05;;;;;;;18.00;9.43;;;;;;;-144.05;76.82;56944.41;5024569;28;19909;-87
2023/10/09 04:25:45;;;;;;;20.58;8.18;;;;;;;-144.05;77.76;56980.53;5029346;28;20299;-87
2023/10/09 04:28:22;;;;;;;16.35;7.88;;;;;;;-144.05;78.24;56948.66;5025029;28;20034;-87
2023/10/09 04:30:58;;;;;;;18.80;8.70;;;;;;;-144.05;77.77;56967.78;5024878;28;20029;-87
2023/10/09 04:33:28;;;;;;;18.30;9.27;;;;;;;-144.05;77.53;56950.78;5030562;28;20075;-87
2023/10/09 04:36:16;;;;;;;15.63;7.68;;;;;;;-144.05;77.96;56942.28;5027520;28;20030;-86
2023/10/09 04:41:27;;;;;;;19.48;7.97;;;;;;;-144.05;78.14;56963.53;5031843;28;20087;-86
2023/10/09 04:44:18;;;;;;;15.30;7.75;;;16.50;99.90;;;-144.05;78.33;56946.53;5034118;28;20051;-87
2023/10/09 04:46:43;;;;;;;21.00;8.52;;;;;;;-144.05;78.13;56984.78;5036006;28;20033;-85
2023/10/09 04:49:34;;;;;;;17.17;8.48;;;;;;;-144.05;77.48;56976.28;5038203;28;20487;-87
2023/10/09 04:52:08;;;;;;;21.15;10.02;;;;;;;-144.05;76.67;56963.53;5039289;28;20037;-86
2023/10/09 04:55:03;;;;;;;17.65;8.82;;;;;;;-144.05;75.83;56955.03;5037263;28;20108;-86
2023/10/09 04:57:27;;;;;;;14.05;7.53;;;;;;;-144.05;76.15;56972.03;5033649;28;20029;-87
2023/10/09 04:59:58;;;;;;;15.95;7.65;;;;;;;-144.05;75.69;56948.66;5036232;28;20368;-88
2023/10/09 05:02:24;;;;;;;12.70;7.95;;;;;;;-144.05;75.95;56963.53;5026446;28;20036;-88
2023/10/09 05:05:16;;;;;;;16.27;8.75;;;;;;;-144.05;75.67;56946.53;5036757;28;20029;-88
2023/10/09 05:07:55;;;;;;;18.25;7.97;;;;;;;-144.05;75.67;56938.03;5035793;28;20029;-87
2023/10/09 05:10:25;;;;;;;22.65;8.23;;;;;;;-144.05;75.87;56946.53;5023330;28;20668;-84
2023/10/09 05:12:57;;;;;;;17.13;7.45;;;;;;;-144.05;75.90;56978.41;5036395;28;20106;-87
2023/10/09 05:15:29;;;;;;;18.27;7.95;;;;;;;-144.05;75.92;56959.28;5029559;28;20061;-88
2023/10/09 05:17:57;;;;;;;12.30;7.03;;;;;;;-144.05;75.77;56978.41;5041670;28;20045;-86
2023/10/09 05:25:53;;;;;;;16.25;7.32;;;;;;;-144.05;75.83;56931.66;5030681;28;20068;-87
2023/10/09 05:28:31;;;;;;;13.32;7.72;;;;;;;-144.05;76.10;56969.91;5058492;28;20033;-85
2023/10/09 05:31:09;;;;;;;14.52;7.82;;;16.60;99.90;;;-144.05;76.24;56955.03;5043948;28;20029;-86
2023/10/09 05:33:37;;;;;;;16.80;8.82;;;16.40;99.90;;;-144.05;76.39;56980.53;5036281;28;20059;-86
2023/10/09 05:36:31;;;;;;;14.13;7.78;;;17.80;99.90;;;-144.05;76.32;56972.03;5034966;28;20026;-85
2023/10/09 05:41:59;;;;;;;14.18;7.32;;;;;;;-144.05;75.88;56959.28;5013923;28;20411;-87
2023/10/09 05:47:47;;;;;;;13.30;6.90;;;;;;;-144.05;76.68;56974.16;5036757;28;20083;-86
2023/10/09 05:50:34;;;;;;;15.52;7.38;;;;;;;-144.05;77.05;56952.91;5026510;28;20033;-85
2023/10/09 06:03:48;;;;;;;17.80;8.35;;;;;;;-144.05;77.38;56946.53;4995323;28;20022;-87
2023/10/09 06:06:32;;;;;;;18.55;8.07;;;;;;;-144.05;77.01;56959.28;5024816;28;20041;-86
2023/10/09 06:14:04;;;;;;;14.43;7.22;;;;;;;-144.05;78.15;56974.16;5034091;28;20037;-88
2023/10/09 06:19:08;;;;;;;13.07;8.03;;;;;;;-144.05;77.92;56965.66;5031643;28;20026;-88
2023/10/09 06:24:14;;;;;;;17.40;8.88;;;;;;;-144.05;78.00;56942.28;5035369;28;20017;-85
2023/10/09 06:29:50;;;;;;;18.98;7.97;;;;;;;-144.05;77.71;56940.16;5032959;28;20050;-85
2023/10/09 06:35:15;;;;;;;17.40;8.00;;;17.30;99.90;;;-144.05;78.08;56948.66;5035491;28;20045;-85
2023/10/09 06:43:17;;;;;;;15.45;8.15;;;;;;;-144.05;76.92;56944.41;5030384;28;20030;-87
2023/10/09 06:45:54;;;;;;;17.65;7.70;;;16.40;99.90;;;-144.05;76.69;56959.28;5040291;28;20026;-83
2023/10/09 07:01:43;;;;;;;15.10;8.15;;;;;;;-144.05;75.99;56967.78;5034523;28;20495;-83
2023/10/09 07:04:19;;;;;;;17.52;7.78;;;;;;;-144.05;75.78;56961.41;5033582;28;20053;-85
2023/10/09 07:06:51;;;;;;;17.50;7.80;;;16.30;99.90;;;-144.05;75.65;56957.16;5045339;28;20029;-85
2023/10/09 07:09:19;;;;;;;16.08;8.48;;;18.20;99.90;;;-144.05;76.17;56948.66;5031150;28;20499;-82
2023/10/09 07:17:15;;;;;;;15.00;7.90;;;17.80;99.90;;;-144.05;76.67;56957.16;5033924;28;20029;-86
2023/10/09 07:25:27;;;;;;;15.00;7.43;;;18.50;99.90;;;-144.05;75.24;56963.53;5030119;28;20034;-85
2023/10/09 07:27:55;;;;;;;;;;;;;;;-144.05;75.71;56982.66;5031471;28;20029;-87
2023/10/09 07:36:29;;;;;;;15.43;7.30;;;;;;;-144.05;76.02;56938.03;5033494;28;20045;-88
2023/10/09 07:38:35;;;;;;;12.65;7.55;;;16.10;99.90;;;-144.05;76.08;56972.03;5036697;28;20416;-87
2023/10/09 07:43:39;;;;;;;17.95;8.10;;;16.60;99.90;;;-144.05;76.41;56961.41;5030959;28;20128;-83
2023/10/09 07:46:32;;;;;;;16.10;8.23;;;17.00;99.90;;;-144.05;76.24;56950.78;5029702;28;20026;-84
2023/10/09 07:49:08;;;;;;;14.07;8.38;;;16.70;99.90;;;-144.05;76.21;56967.78;5033683;28;20045;-87
2023/10/09 07:51:38;;;;;;;14.80;8.98;;;;;;;-144.05;76.05;56933.78;5034719;28;20029;-85
2023/10/09 07:54:07;;;;;;;17.70;9.68;;;;;;;-144.05;76.96;56963.53;5038024;28;20041;-86
2023/10/09 07:56:45;;;;;;;15.35;8.95;;;16.70;99.90;;;-144.05;77.39;56933.78;5033664;28;20030;-88
2023/10/09 07:59:18;;;;;;;15.82;8.20;;;17.20;99.90;;;-144.05;76.92;56989.00;5053472;28;20445;-86
2023/10/09 08:02:02;;;;;;;17.50;8.98;;;15.30;99.90;;;-144.05;76.71;56965.66;5027856;28;20032;-87
2023/10/09 08:04:37;;;;;;;19.15;8.27;;;;;;;-144.05;77.19;56933.78;5048037;28;20030;-87
2023/10/09 08:07:25;;;;;;;18.02;9.23;;;16.20;99.90;;;-144.05;76.64;56967.78;5030127;28;20031;-85
2023/10/09 08:15:20;;;;;;;17.20;8.10;;;17.40;99.90;;;-144.05;75.72;56955.03;5037551;28;20036;-84
2023/10/09 08:18:03;;;;;;;17.98;9.02;;;18.30;99.90;;;-144.05;75.77;56982.66;5038252;28;20406;-86
2023/10/09 08:23:28;;;;;;;20.65;8.45;;;;;;;-144.05;75.95;56969.91;5033066;28;20052;-86
2023/10/09 08:26:12;;;;;;;23.65;8.90;;;17.30;99.90;;;-144.05;75.80;56986.91;5039063;28;20029;-85
2023/10/09 08:28:42;;;;;;;20.98;9.35;;;;;;;-144.05;75.58;56978.41;5025004;28;20026;-86
2023/10/09 08:33:59;;;;;;;18.35;8.25;;;;;;;-144.05;76.25;56948.66;5031385;28;20052;-87
2023/10/09 08:36:36;;;;;;;16.35;7.95;;;16.20;99.90;;;-144.05;76.44;56961.41;5047594;28;20029;-86
2023/10/09 08:39:16;;;;;;;16.10;8.55;;;;;;;-144.05;75.58;56978.41;5035325;28;20037;-87
2023/10/09 08:41:43;;;;;;;17.58;9.70;;;;;;;-144.05;75.64;56967.78;5037235;28;20059;-88
2023/10/09 08:44:15;;;;;;;15.25;7.97;;;;;;;-144.05;76.08;56955.03;5038338;28;20034;-86
2023/10/09 08:46:42;;;;;;;17.63;9.27;;;18.70;99.90;;;-144.05;76.24;56963.53;5043948;28;20040;-87
2023/10/09 08:49:10;;;;;;;15.73;9.05;;;;;;;-144.05;76.81;56963.53;5036058;28;20034;-87
2023/10/09 08:51:37;;;;;;;18.38;9.88;;;;;;;-144.05;76.33;56950.78;5036426;28;20052;-85
2023/10/09 08:54:11;;;;;;;20.90;9.23;;;;;;;-144.05;76.32;56963.53;5029697;28;20037;-88
2023/10/09 08:56:39;;;;;;;15.40;8.63;;;;;;;-144.05;76.06;56965.66;5036177;28;20028;-86
2023/10/09 08:59:06;;;;;;;16.48;9.48;;;;;;;-144.05;76.50;56961.41;5036962;28;20033;-85
2023/10/09 09:01:32;;;;;;;21.17;9.90;;;;;;;-144.05;76.29;56997.50;5052248;28;20030;-85
2023/10/09 09:04:00;;;;;;;17.27;8.82;;;;;;;-144.05;76.93;56946.53;5025943;28;20030;-85
2023/10/09 09:06:35;;;;;;;17.70;9.68;;;;;;;-144.05;77.24;56978.41;5037479;28;20445;-84
2023/10/09 09:09:15;;;;;;;19.75;9.77;;;19.20;99.90;;;-144.05;75.84;56963.53;5033325;28;20053;-87
2023/10/09 09:11:49;;;;;;;17.05;9.25;;;18.60;99.90;;;-144.05;75.36;56963.53;5038096;28;20041;-85
2023/10/09 09:14:22;;;;;;;16.67;9.35;;;;;;;-144.05;75.58;56986.91;5033036;28;20021;-84
2023/10/09 09:16:48;;;;;;;23.75;10.55;;;;;;;-144.05;75.61;56969.91;5028826;28;20029;-85
2023/10/09 09:19:18;;;;;;;19.15;9.30;;;19.10;99.90;;;-144.05;74.98;56938.03;5036882;28;20373;-83
2023/10/09 09:21:59;;;;;;;14.57;8.85;;;;;;;-144.05;74.51;56967.78;5035325;28;20392;-83
2023/10/09 09:27:09;;;;;;;16.63;9.27;;;;;;;-144.05;72.36;56989.00;5024705;28;20079;-85
2023/10/09 09:29:41;;;;;;;21.35;9.57;;;18.20;99.90;;;-144.05;73.58;56980.53;5032365;28;20032;-85
2023/10/09 09:32:19;;;;;;;15.43;8.50;;;18.80;99.90;;;-144.05;72.04;56974.16;5033257;28;20117;-85
2023/10/09 09:34:54;;;;;;;15.98;8.57;;;19.30;99.90;;;-144.05;71.82;56969.91;5036193;28;20030;-87
2023/10/09 09:37:30;;;;;;;16.00;8.13;;;;;;;-144.05;71.93;56957.16;5031318;28;20041;-85
2023/10/09 09:40:14;;;;;;;21.33;8.75;;;17.90;99.90;;;-144.05;72.00;56978.41;5030308;28;20030;-87
2023/10/09 09:42:48;;;;;;;13.68;7.53;;;18.60;99.90;;;-144.05;71.72;56974.16;5032754;28;20052;-87
2023/10/09 09:45:16;;;;;;;17.58;8.38;;;;;;;-144.05;69.77;56989.00;5035736;28;20025;-86
2023/10/09 09:47:51;;;;;;;15.05;7.97;;;19.00;99.90;;;-144.05;68.49;56969.91;5036786;28;20040;-85
2023/10/09 09:50:26;;;;;;;17.27;7.82;;;;;;;-144.05;67.58;56965.66;5042524;28;20101;-85
2023/10/09 09:52:55;;;;;;;16.15;7.78;;;19.30;99.90;;;-144.05;67.42;56989.00;5035896;28;20085;-84
2023/10/09 09:55:33;;;;;;;14.75;8.25;;;;;;;-144.05;68.41;56993.25;5034362;28;20083;-85
2023/10/09 09:58:07;;;;;;;15.43;8.52;;;19.90;99.90;;;-144.05;68.64;56982.66;5030219;28;20052;-85
2023/10/09 10:03:36;;;;;;;16.75;7.85;;;19.70;99.90;;;-144.05;67.85;56984.78;5031576;28;20021;-85
2023/10/09 10:06:12;;;;;;;13.77;7.60;;;19.50;99.90;;;-144.05;66.89;56969.91;5032990;28;20029;-86
2023/10/09 10:08:39;;;;;;;;;;;21.10;99.90;;;-144.05;66.48;56986.91;5025903;28;20030;-86
2023/10/09 10:11:06;;;;;;;19.13;7.78;;;19.30;99.90;;;-144.05;66.95;56984.78;5024066;28;19909;-85
2023/10/09 10:13:41;;;;;;;15.25;7.65;;;;;;;-144.05;66.48;56984.78;5023660;28;20497;-84
2023/10/09 10:19:21;;;;;;;17.02;7.55;;;19.70;99.90;;;-144.05;66.31;56995.38;5023779;28;20072;-86
2023/10/09 10:21:49;;;;;;;13.25;8.10;;;;;;;-144.05;66.14;57003.88;5028836;28;20395;-84
2023/10/09 10:24:51;;;;;;;14.75;8.35;;;20.90;99.90;;;-144.05;65.98;56978.41;5030236;28;20030;-82
2023/10/09 10:27:24;;;;;;;13.45;8.00;;;;;;;-144.05;65.63;56986.91;5026159;28;20033;-84
2023/10/09 10:30:12;;;;;;;16.42;8.00;;;19.40;99.90;;;-144.05;65.59;57001.75;5047856;28;20021;-85
2023/10/09 10:33:22;;;;;;;17.50;8.82;;;19.30;99.90;;;-144.05;66.05;57001.75;5026992;28;20025;-84
2023/10/09 10:38:38;;;;;;;15.60;6.75;;;19.40;99.90;;;-144.05;65.53;56984.78;5037247;28;20025;-83
2023/10/09 10:41:12;;;;;;;;;;;;;;;-144.05;66.14;56980.53;5037118;28;20048;-87
2023/10/09 10:46:32;;;;;;;12.52;7.97;;;19.90;99.90;;;-144.05;66.15;56997.50;5038829;28;20029;-84
2023/10/09 10:51:37;;;;;;;16.75;8.43;;;;;;;-144.05;65.68;56989.00;5018766;28;20041;-85
2023/10/09 10:56:57;;;;;;;17.17;8.70;;;;;;;-144.05;66.11;56984.78;5028457;28;20033;-88
2023/10/09 10:59:25;;;;;;;14.18;7.50;;;;;;;-144.05;66.04;56963.53;5025451;28;20090;-85
2023/10/09 11:02:22;;;;;;;14.82;7.68;;;;;;;-144.05;65.43;57008.13;5018368;28;20025;-86
2023/10/09 11:04:53;;;;;;;14.25;7.90;;;20.10;99.90;;;-144.05;66.16;56967.78;5017538;28;20030;-86
2023/10/09 11:12:44;;;;;;;15.27;8.15;;;19.90;99.90;;;-144.05;65.86;56989.00;5037406;28;20097;-81
2023/10/09 11:18:20;;;;;;;16.67;7.60;;;21.00;99.90;;;-144.05;64.57;56984.78;5046949;28;20108;-85
2023/10/09 11:21:22;;;;;;;13.55;7.50;;;21.50;99.90;;;-144.05;63.11;56993.25;5055885;28;20037;-85
2023/10/09 11:23:57;;;;;;;18.55;8.27;;;;;;;-144.05;62.85;56995.38;5049803;28;20010;-84
2023/10/09 11:26:27;;;;;;;20.40;8.77;;;21.50;99.90;;;-144.05;61.43;56991.13;5057437;28;20036;-82
2023/10/09 11:29:23;;;;;;;18.80;7.72;;;21.00;99.90;;;-144.05;61.16;56999.63;5063623;28;20029;-84
2023/10/09 11:32:09;;;;;;;16.48;8.27;;;;;;;-144.05;61.80;56993.25;5044838;28;20029;-84
2023/10/09 11:34:37;;;;;;;16.58;8.80;;;;;;;-144.05;62.21;57023.00;5041373;28;20080;-86
2023/10/09 11:37:39;;;;;;;17.83;7.93;;;21.00;99.90;;;-144.05;61.67;56993.25;5037611;28;20026;-87
2023/10/09 11:40:21;;;;;;;14.02;8.40;;;;;;;-144.05;61.92;57012.38;5029677;28;20029;-88
2023/10/09 11:42:50;;;;;;;16.02;10.02;;;21.70;99.90;;;-144.05;61.38;56959.28;5039419;28;20041;-86
2023/10/09 11:45:37;;;;;;;21.27;12.93;;;21.20;99.90;;;-144.05;61.66;56995.38;5040438;28;20025;-87
2023/10/09 11:48:24;;;;;;;17.33;9.25;;;22.30;99.90;;;-144.05;60.75;57012.38;5037109;28;20093;-86
2023/10/09 11:55:54;;;;;;;13.70;7.15;;;;;;;-144.05;60.19;57003.88;5051141;28;20060;-87
2023/10/09 11:58:22;;;;;;;18.73;8.52;;;17.10;99.90;;;-144.05;60.48;57020.88;5066987;28;20038;-88
2023/10/09 12:00:58;;;;;;;17.45;7.60;;;;;;;-144.05;61.24;56993.25;5041146;28;20026;-85
2023/10/09 12:03:29;;;;;;;13.93;7.93;;;21.70;99.90;;;-144.05;60.89;56997.50;5049386;28;20036;-86
2023/10/09 12:06:11;;;;;;;21.65;8.75;;;21.10;99.90;;;-144.05;62.08;56995.38;5038247;28;20076;-85
2023/10/09 12:08:41;;;;;;;18.13;8.52;;;;;;;-144.05;63.15;56967.78;5033594;28;20439;-86
2023/10/09 12:11:09;;;;;;;17.98;8.80;;;;;;;-144.05;63.00;56999.63;5039856;28;20045;-86
2023/10/09 12:13:38;;;;;;;21.67;8.70;;;20.10;99.90;;;-144.05;63.07;57014.50;5038886;28;20120;-85
2023/10/09 12:16:10;;;;;;;18.65;10.73;;;;;;;-144.05;63.12;56989.00;5040110;28;20109;-84
2023/10/09 12:18:40;;;;;;;16.60;8.85;;;;;;;-144.05;63.09;56989.00;5032737;28;20037;-87
2023/10/09 12:21:07;;;;;;;18.15;9.25;;;;;;;-144.05;62.58;57020.88;5036183;28;20121;-85
2023/10/09 12:23:36;;;;;;;35.38;16.38;;;;;;;-144.05;62.42;57027.25;5029367;28;20025;-85
2023/10/09 12:26:04;;;;;;;18.90;10.07;;;19.50;99.90;;;-144.05;62.42;57008.13;5036100;28;20034;-84
2023/10/09 12:28:32;;;;;;;19.75;8.73;;;;;;;-144.05;62.24;57020.88;5047618;28;20483;-86
2023/10/09 12:31:01;;;;;;;20.00;9.82;;;20.60;99.90;;;-144.05;62.42;56986.91;5042456;28;20021;-87
2023/10/09 12:33:29;;;;;;;19.88;9.98;;;20.70;99.90;;;-144.05;62.77;56997.50;5038814;28;20048;-87
2023/10/09 12:36:04;;;;;;;24.83;13.38;;;;;;;-144.05;62.84;56965.66;5034724;28;20026;-83
2023/10/09 12:38:33;;;;;;;23.83;9.00;;;;;;;-144.05;62.99;56993.25;5033243;28;20030;-83
2023/10/09 12:41:25;;;;;;;18.65;8.13;;;19.90;99.90;;;-144.05;62.86;57018.75;5032550;28;20299;-82
2023/10/09 12:43:52;;;;;;;16.10;7.47;;;20.60;99.90;;;-144.05;62.90;56969.91;5047584;28;20052;-85
2023/10/09 12:46:32;;;;;;;19.13;10.25;;;20.70;99.90;;;-144.05;62.76;57006.00;5030604;28;20061;-83
2023/10/09 12:49:01;;;;;;;18.42;8.65;;;20.00;99.90;;;-144.05;62.85;57031.50;5034880;28;20017;-83
2023/10/09 12:51:29;;;;;;;16.83;9.73;;;;;;;-144.05;63.05;56969.91;5030495;28;20558;-85
2023/10/09 12:54:01;;;;;;;19.42;9.32;;;;;;;-144.05;62.77;57014.50;5037019;28;20033;-83
2023/10/09 12:56:37;;;;;;;20.60;9.38;;;20.50;99.90;;;-144.05;62.62;56980.53;5038093;28;20022;-86
2023/10/09 12:59:04;;;;;;;19.17;8.13;;;;;;;-144.05;62.42;57001.75;5037711;28;20470;-84
2023/10/09 13:01:32;;;;;;;16.33;9.05;;;;;;;-144.05;62.03;56995.38;5040114;28;20395;-87
2023/10/09 13:04:01;;;;;;;15.60;8.38;;;20.60;99.90;;;-144.05;62.21;57023.00;5039900;28;20025;-85
2023/10/09 13:06:27;;;;;;;18.00;9.60;;;;;;;-144.05;62.11;56995.38;5035911;28;20128;-86
2023/10/09 13:08:59;;;;;;;14.75;8.05;;;;;;;-144.05;63.07;56986.91;5033251;28;20029;-86
2023/10/09 13:11:26;;;;;;;22.48;9.93;;;19.80;99.90;;;-144.05;62.58;57020.88;5031755;28;20511;-87
2023/10/09 13:13:52;;;;;;;18.23;8.80;;;;;;;-144.05;63.06;57010.25;5025224;28;20026;-85
2023/10/09 13:16:24;;;;;;;14.80;8.63;;;20.10;99.90;;;-144.05;63.44;56993.25;5037104;28;20471;-86
2023/10/09 13:18:59;;;;;;;23.58;9.32;;;19.30;99.90;;;-144.05;63.01;56978.41;5033973;28;20030;-85
2023/10/09 13:21:34;;;;;;;20.30;8.63;;;17.90;99.90;;;-144.05;63.49;57016.63;5036191;28;20045;-83
2023/10/09 13:24:01;;;;;;;22.03;10.73;;;;;;;-144.05;64.22;57003.88;5035563;28;20312;-84
2023/10/09 13:26:34;;;;;;;15.43;7.85;;;;;;;-144.05;64.18;57033.63;5036791;28;20817;-85
2023/10/09 13:29:03;;;;;;;17.67;9.63;;;;;;;-144.05;63.85;56972.03;5034929;28;20033;-84
2023/10/09 13:31:33;;;;;;;18.00;9.55;;;20.00;99.90;;;-144.05;63.97;56980.53;5033435;28;20026;-85
2023/10/09 13:34:01;;;;;;;20.02;9.65;;;;;;;-144.05;64.01;57014.50;5030628;28;20108;-84
2023/10/09 13:36:27;;;;;;;25.02;9.57;;;;;;;-144.05;64.19;57012.38;5037939;28;20032;-83